Time,TemperatureF,DewpointF,PressureIn,WindDirection,WindDirectionDegrees,WindSpeedMPH,WindSpeedGustMPH,Humidity,HourlyPrecipIn,Conditions,Clouds,dailyrainin,SoftwareType,DateUTC
2013-06-09 17:12:00,78.0,41.0,-100.00,South,175,10.0,16.0,27,-99.99,,,-99.99,,2013-06-09 23:12:00,
2013-06-09 17:22:00,78.0,41.0,-100.00,South,175,10.0,16.0,27,-99.99,,,-99.99,,2013-06-09 23:22:00,
2013-06-09 17:32:00,78.0,40.0,-100.00,SSE,160,13.0,16.0,26,-99.99,,,-99.99,,2013-06-09 23:32:00,
2013-06-09 17:52:00,78.0,41.0,-100.00,SSW,210,14.0,17.0,26,-99.99,,,-99.99,,2013-06-09 23:52:00,
2013-06-09 18:13:00,78.0,39.0,-100.00,SW,230,13.0,16.0,25,-99.99,,,-99.99,,2013-06-10 00:13:00,
2013-06-09 18:22:00,78.0,39.0,-100.00,SW,230,13.0,16.0,25,-99.99,,,-99.99,,2013-06-10 00:22:00,
2013-06-09 18:32:00,78.0,39.0,-100.00,SSW,205,14.0,16.0,24,-99.99,,,-99.99,,2013-06-10 00:32:00,
2013-06-09 18:52:00,78.0,38.0,-100.00,SSW,205,14.0,14.0,24,-99.99,,,-99.99,,2013-06-10 00:52:00,
2013-06-09 19:12:00,78.0,38.0,-100.00,SW,215,9.0,11.0,24,-99.99,,,-99.99,,2013-06-10 01:12:00,
2013-06-09 19:22:00,78.0,38.0,-100.00,SW,215,9.0,11.0,24,-99.99,,,-99.99,,2013-06-10 01:22:00,
2013-06-09 19:32:00,78.0,39.0,-100.00,South,190,6.0,7.0,25,-99.99,,,-99.99,,2013-06-10 01:32:00,
2013-06-09 19:52:00,79.0,41.0,-100.00,SSW,195,3.0,4.0,26,-99.99,,,-99.99,,2013-06-10 01:52:00,
2013-06-09 20:12:00,78.0,40.0,-100.00,North,-999,0.0,0.0,25,-99.99,,,-99.99,,2013-06-10 02:12:00,
2013-06-09 20:22:00,78.0,40.0,-100.00,North,-999,0.0,0.0,25,-99.99,,,-99.99,,2013-06-10 02:22:00,
2013-06-09 20:32:00,76.0,42.0,-100.00,ESE,105,1.0,1.0,30,-99.99,,,-99.99,,2013-06-10 02:32:00,
2013-06-09 20:52:00,74.0,44.0,-100.00,East,80,3.0,3.0,34,-99.99,,,-99.99,,2013-06-10 02:52:00,
2013-06-09 21:12:00,70.0,43.0,-100.00,ESE,105,6.0,6.0,38,-99.99,,,-99.99,,2013-06-10 03:12:00,
2013-06-09 21:22:00,70.0,43.0,-100.00,ESE,105,6.0,6.0,38,-99.99,,,-99.99,,2013-06-10 03:22:00,
2013-06-09 21:33:00,68.0,41.0,-100.00,ESE,105,6.0,7.0,37,-99.99,,,-99.99,,2013-06-10 03:33:00,
2013-06-09 21:53:00,66.0,39.0,-100.00,ESE,105,8.0,8.0,37,-99.99,,,-99.99,,2013-06-10 03:53:00,
2013-06-09 22:12:00,63.0,40.0,-100.00,East,85,5.0,6.0,44,-99.99,,,-99.99,,2013-06-10 04:12:00,
2013-06-09 22:23:00,63.0,40.0,-100.00,East,85,5.0,6.0,44,-99.99,,,-99.99,,2013-06-10 04:23:00,
2013-06-09 22:33:00,63.0,42.0,-100.00,East,80,6.0,8.0,46,-99.99,,,-99.99,,2013-06-10 04:33:00,
2013-06-09 22:52:00,61.0,45.0,-100.00,East,90,12.0,12.0,54,-99.99,,,-99.99,,2013-06-10 04:52:00,
2013-06-09 23:12:00,63.0,48.0,-100.00,SE,125,15.0,16.0,58,-99.99,,,-99.99,,2013-06-10 05:12:00,
2013-06-09 23:22:00,63.0,48.0,-100.00,SE,125,15.0,16.0,58,-99.99,,,-99.99,,2013-06-10 05:22:00,
2013-06-09 23:32:00,62.0,49.0,-100.00,ESE,120,11.0,12.0,62,-99.99,,,-99.99,,2013-06-10 05:32:00,
2013-06-09 23:42:00,62.0,49.0,-100.00,ESE,120,11.0,12.0,62,-99.99,,,-99.99,,2013-06-10 05:42:00,
2013-06-09 23:52:00,64.0,51.0,-100.00,SE,130,16.0,17.0,62,-99.99,,,-99.99,,2013-06-10 05:52:00,